sensor_id;sensor_type;location;lat;lon;timestamp;temperature;humidity
1429;DHT22;708;51.442;7.016;2023-05-08T00:01:30;16.80;60.40
1429;DHT22;708;51.442;7.016;2023-05-08T00:03:57;16.70;68.70
1429;DHT22;708;51.442;7.016;2023-05-08T00:06:24;16.60;69.80
1429;DHT22;708;51.442;7.016;2023-05-08T00:08:52;16.60;77.60
1429;DHT22;708;51.442;7.016;2023-05-08T00:11:20;16.60;78.00
1429;DHT22;708;51.442;7.016;2023-05-08T00:13:47;16.60;82.70
1429;DHT22;708;51.442;7.016;2023-05-08T00:16:14;16.60;88.80
1429;DHT22;708;51.442;7.016;2023-05-08T00:18:40;16.60;91.20
1429;DHT22;708;51.442;7.016;2023-05-08T00:21:07;16.50;97.50
1429;DHT22;708;51.442;7.016;2023-05-08T00:23:34;16.50;96.90
1429;DHT22;708;51.442;7.016;2023-05-08T00:26:01;16.50;97.40
1429;DHT22;708;51.442;7.016;2023-05-08T00:28:29;16.60;92.10
1429;DHT22;708;51.442;7.016;2023-05-08T00:30:58;16.60;92.60
1429;DHT22;708;51.442;7.016;2023-05-08T00:33:26;16.60;91.60
1429;DHT22;708;51.442;7.016;2023-05-08T00:35:58;16.50;91.60
1429;DHT22;708;51.442;7.016;2023-05-08T00:38:24;16.40;95.60
1429;DHT22;708;51.442;7.016;2023-05-08T00:40:51;16.40;96.90
1429;DHT22;708;51.442;7.016;2023-05-08T00:43:18;16.50;99.90
1429;DHT22;708;51.442;7.016;2023-05-08T00:45:51;16.40;97.50
1429;DHT22;708;51.442;7.016;2023-05-08T00:48:20;16.50;93.50
1429;DHT22;708;51.442;7.016;2023-05-08T00:50:47;16.50;81.30
1429;DHT22;708;51.442;7.016;2023-05-08T00:53:15;16.40;81.30
1429;DHT22;708;51.442;7.016;2023-05-08T00:55:42;16.40;78.30
1429;DHT22;708;51.442;7.016;2023-05-08T00:58:10;16.40;83.30
1429;DHT22;708;51.442;7.016;2023-05-08T01:00:38;16.30;86.60
1429;DHT22;708;51.442;7.016;2023-05-08T01:03:08;16.30;84.50
1429;DHT22;708;51.442;7.016;2023-05-08T01:05:35;16.30;87.80
1429;DHT22;708;51.442;7.016;2023-05-08T01:08:02;16.30;90.10
1429;DHT22;708;51.442;7.016;2023-05-08T01:10:34;16.30;91.70
1429;DHT22;708;51.442;7.016;2023-05-08T01:13:08;16.30;90.70
1429;DHT22;708;51.442;7.016;2023-05-08T01:15:40;16.20;90.80
1429;DHT22;708;51.442;7.016;2023-05-08T01:18:12;16.30;92.40
1429;DHT22;708;51.442;7.016;2023-05-08T01:20:45;16.30;94.00
1429;DHT22;708;51.442;7.016;2023-05-08T01:26:41;16.30;80.30
1429;DHT22;708;51.442;7.016;2023-05-08T01:29:45;16.30;74.00
1429;DHT22;708;51.442;7.016;2023-05-08T01:32:18;16.30;68.20
1429;DHT22;708;51.442;7.016;2023-05-08T01:34:56;16.30;67.90
1429;DHT22;708;51.442;7.016;2023-05-08T01:37:34;16.20;72.50
1429;DHT22;708;51.442;7.016;2023-05-08T01:40:08;16.20;84.50
1429;DHT22;708;51.442;7.016;2023-05-08T01:42:46;16.10;86.00
1429;DHT22;708;51.442;7.016;2023-05-08T01:45:18;16.10;91.30
1429;DHT22;708;51.442;7.016;2023-05-08T01:47:53;16.10;92.00
1429;DHT22;708;51.442;7.016;2023-05-08T01:50:29;16.00;99.30
1429;DHT22;708;51.442;7.016;2023-05-08T01:52:59;16.10;99.90
1429;DHT22;708;51.442;7.016;2023-05-08T01:55:32;16.20;99.90
1429;DHT22;708;51.442;7.016;2023-05-08T01:58:01;16.10;99.90
1429;DHT22;708;51.442;7.016;2023-05-08T02:00:29;16.10;99.90
1429;DHT22;708;51.442;7.016;2023-05-08T02:02:59;16.10;95.90
1429;DHT22;708;51.442;7.016;2023-05-08T02:05:27;16.10;95.30
1429;DHT22;708;51.442;7.016;2023-05-08T02:07:54;16.10;93.30
1429;DHT22;708;51.442;7.016;2023-05-08T02:10:23;16.00;94.70
1429;DHT22;708;51.442;7.016;2023-05-08T02:12:51;16.00;99.90
1429;DHT22;708;51.442;7.016;2023-05-08T02:15:20;16.00;99.90
1429;DHT22;708;51.442;7.016;2023-05-08T02:17:49;16.00;99.90
1429;DHT22;708;51.442;7.016;2023-05-08T02:20:19;15.90;99.90
1429;DHT22;708;51.442;7.016;2023-05-08T02:22:49;15.90;99.90
1429;DHT22;708;51.442;7.016;2023-05-08T02:25:17;15.90;99.90
1429;DHT22;708;51.442;7.016;2023-05-08T02:27:46;15.90;99.90
1429;DHT22;708;51.442;7.016;2023-05-08T02:30:14;15.80;99.90
1429;DHT22;708;51.442;7.016;2023-05-08T02:32:43;15.80;99.90
1429;DHT22;708;51.442;7.016;2023-05-08T02:35:12;15.80;99.90
1429;DHT22;708;51.442;7.016;2023-05-08T02:37:42;15.80;99.90
1429;DHT22;708;51.442;7.016;2023-05-08T02:40:10;15.70;99.90
1429;DHT22;708;51.442;7.016;2023-05-08T02:42:37;15.70;99.90
1429;DHT22;708;51.442;7.016;2023-05-08T02:45:05;15.70;99.90
1429;DHT22;708;51.442;7.016;2023-05-08T02:47:38;15.70;99.90
1429;DHT22;708;51.442;7.016;2023-05-08T02:50:13;15.70;99.90
1429;DHT22;708;51.442;7.016;2023-05-08T02:52:46;15.70;99.90
1429;DHT22;708;51.442;7.016;2023-05-08T02:55:28;15.70;99.90
1429;DHT22;708;51.442;7.016;2023-05-08T02:58:05;15.70;99.90
1429;DHT22;708;51.442;7.016;2023-05-08T03:00:41;15.70;99.90
1429;DHT22;708;51.442;7.016;2023-05-08T03:03:18;15.60;99.90
1429;DHT22;708;51.442;7.016;2023-05-08T03:05:51;15.60;99.90
1429;DHT22;708;51.442;7.016;2023-05-08T03:08:25;15.60;99.90
1429;DHT22;708;51.442;7.016;2023-05-08T03:10:55;15.60;99.90
1429;DHT22;708;51.442;7.016;2023-05-08T03:13:24;15.60;99.90
1429;DHT22;708;51.442;7.016;2023-05-08T03:15:54;15.60;99.90
1429;DHT22;708;51.442;7.016;2023-05-08T03:18:25;15.60;99.90
1429;DHT22;708;51.442;7.016;2023-05-08T03:20:55;15.60;99.90
1429;DHT22;708;51.442;7.016;2023-05-08T03:23:27;15.70;99.90
1429;DHT22;708;51.442;7.016;2023-05-08T03:25:57;15.70;99.90
1429;DHT22;708;51.442;7.016;2023-05-08T03:28:25;15.80;99.90
1429;DHT22;708;51.442;7.016;2023-05-08T03:30:53;15.80;99.90
1429;DHT22;708;51.442;7.016;2023-05-08T03:33:22;15.90;99.90
1429;DHT22;708;51.442;7.016;2023-05-08T03:35:50;15.80;99.90
1429;DHT22;708;51.442;7.016;2023-05-08T03:38:17;15.80;99.90
1429;DHT22;708;51.442;7.016;2023-05-08T03:40:46;15.80;99.90
1429;DHT22;708;51.442;7.016;2023-05-08T03:43:14;15.80;99.90
1429;DHT22;708;51.442;7.016;2023-05-08T03:45:42;15.80;99.90
1429;DHT22;708;51.442;7.016;2023-05-08T03:48:09;15.90;99.90
1429;DHT22;708;51.442;7.016;2023-05-08T03:50:37;15.90;99.90
1429;DHT22;708;51.442;7.016;2023-05-08T03:53:04;16.00;99.90
1429;DHT22;708;51.442;7.016;2023-05-08T03:55:31;16.00;99.90
1429;DHT22;708;51.442;7.016;2023-05-08T03:58:04;16.00;99.90
1429;DHT22;708;51.442;7.016;2023-05-08T04:00:40;16.00;99.90
1429;DHT22;708;51.442;7.016;2023-05-08T04:03:18;16.00;99.90
1429;DHT22;708;51.442;7.016;2023-05-08T04:05:50;16.00;99.90
1429;DHT22;708;51.442;7.016;2023-05-08T04:08:24;15.90;99.90
1429;DHT22;708;51.442;7.016;2023-05-08T04:10:57;15.90;99.90
1429;DHT22;708;51.442;7.016;2023-05-08T04:13:31;16.00;99.90
1429;DHT22;708;51.442;7.016;2023-05-08T04:16:06;16.10;99.90
1429;DHT22;708;51.442;7.016;2023-05-08T04:18:37;16.10;99.90
1429;DHT22;708;51.442;7.016;2023-05-08T04:21:08;16.20;99.90
1429;DHT22;708;51.442;7.016;2023-05-08T04:23:38;16.10;99.90
1429;DHT22;708;51.442;7.016;2023-05-08T04:26:06;16.10;99.90
1429;DHT22;708;51.442;7.016;2023-05-08T04:28:34;16.10;99.90
1429;DHT22;708;51.442;7.016;2023-05-08T04:31:02;16.20;99.90
1429;DHT22;708;51.442;7.016;2023-05-08T04:33:30;16.20;99.90
1429;DHT22;708;51.442;7.016;2023-05-08T04:36:00;16.20;99.90
1429;DHT22;708;51.442;7.016;2023-05-08T04:38:28;16.20;99.90
1429;DHT22;708;51.442;7.016;2023-05-08T04:40:55;16.30;99.90
1429;DHT22;708;51.442;7.016;2023-05-08T04:43:22;16.30;99.90
1429;DHT22;708;51.442;7.016;2023-05-08T04:45:50;16.40;99.90
1429;DHT22;708;51.442;7.016;2023-05-08T04:48:16;16.40;99.90
1429;DHT22;708;51.442;7.016;2023-05-08T04:50:43;16.50;99.90
1429;DHT22;708;51.442;7.016;2023-05-08T04:53:10;16.50;99.90
1429;DHT22;708;51.442;7.016;2023-05-08T04:55:37;16.60;99.90
1429;DHT22;708;51.442;7.016;2023-05-08T04:58:04;16.60;99.90
1429;DHT22;708;51.442;7.016;2023-05-08T05:00:30;16.70;99.90
1429;DHT22;708;51.442;7.016;2023-05-08T05:02:58;16.80;99.90
1429;DHT22;708;51.442;7.016;2023-05-08T05:05:25;16.90;99.90
1429;DHT22;708;51.442;7.016;2023-05-08T05:07:52;17.00;99.90
1429;DHT22;708;51.442;7.016;2023-05-08T05:10:19;17.20;99.90
1429;DHT22;708;51.442;7.016;2023-05-08T05:12:46;17.30;99.90
1429;DHT22;708;51.442;7.016;2023-05-08T05:15:13;17.40;99.90
1429;DHT22;708;51.442;7.016;2023-05-08T05:17:40;17.60;99.90
1429;DHT22;708;51.442;7.016;2023-05-08T05:20:09;17.70;99.90
1429;DHT22;708;51.442;7.016;2023-05-08T05:22:36;17.90;84.00
1429;DHT22;708;51.442;7.016;2023-05-08T05:25:03;18.00;59.60
1429;DHT22;708;51.442;7.016;2023-05-08T05:27:30;18.10;55.50
1429;DHT22;708;51.442;7.016;2023-05-08T05:29:58;18.10;47.30
1429;DHT22;708;51.442;7.016;2023-05-08T05:32:25;18.00;39.10
1429;DHT22;708;51.442;7.016;2023-05-08T05:34:51;18.10;41.40
1429;DHT22;708;51.442;7.016;2023-05-08T05:37:21;18.00;39.70
1429;DHT22;708;51.442;7.016;2023-05-08T05:39:47;18.00;41.30
1429;DHT22;708;51.442;7.016;2023-05-08T05:42:14;18.10;40.30
1429;DHT22;708;51.442;7.016;2023-05-08T05:44:41;18.10;33.00
1429;DHT22;708;51.442;7.016;2023-05-08T05:47:08;18.10;37.60
1429;DHT22;708;51.442;7.016;2023-05-08T05:49:35;18.10;39.50
1429;DHT22;708;51.442;7.016;2023-05-08T05:52:04;18.20;34.90
1429;DHT22;708;51.442;7.016;2023-05-08T05:54:32;18.20;31.10
1429;DHT22;708;51.442;7.016;2023-05-08T05:56:59;18.20;33.70
1429;DHT22;708;51.442;7.016;2023-05-08T05:59:26;18.10;30.90
1429;DHT22;708;51.442;7.016;2023-05-08T06:01:52;18.20;29.60
1429;DHT22;708;51.442;7.016;2023-05-08T06:04:19;18.20;29.60
1429;DHT22;708;51.442;7.016;2023-05-08T06:06:46;18.20;24.70
1429;DHT22;708;51.442;7.016;2023-05-08T06:09:13;18.20;25.90
1429;DHT22;708;51.442;7.016;2023-05-08T06:11:41;18.30;26.90
1429;DHT22;708;51.442;7.016;2023-05-08T06:14:08;18.40;16.70
1429;DHT22;708;51.442;7.016;2023-05-08T06:16:35;18.40;15.50
1429;DHT22;708;51.442;7.016;2023-05-08T06:19:02;18.50;15.80
1429;DHT22;708;51.442;7.016;2023-05-08T06:21:28;18.50;4.90
1429;DHT22;708;51.442;7.016;2023-05-08T06:23:55;18.40;3.30
1429;DHT22;708;51.442;7.016;2023-05-08T06:26:22;18.50;5.30
1429;DHT22;708;51.442;7.016;2023-05-08T06:28:50;18.50;4.70
1429;DHT22;708;51.442;7.016;2023-05-08T06:31:17;18.60;4.20
1429;DHT22;708;51.442;7.016;2023-05-08T06:33:44;18.60;1.70
1429;DHT22;708;51.442;7.016;2023-05-08T06:36:11;18.70;1.00
1429;DHT22;708;51.442;7.016;2023-05-08T06:38:38;18.80;1.00
1429;DHT22;708;51.442;7.016;2023-05-08T06:41:05;18.80;1.00
1429;DHT22;708;51.442;7.016;2023-05-08T06:43:32;18.90;1.00
1429;DHT22;708;51.442;7.016;2023-05-08T06:46:00;19.10;1.00
1429;DHT22;708;51.442;7.016;2023-05-08T06:48:27;19.30;1.00
1429;DHT22;708;51.442;7.016;2023-05-08T06:50:53;19.60;1.00
1429;DHT22;708;51.442;7.016;2023-05-08T06:53:20;19.70;1.00
1429;DHT22;708;51.442;7.016;2023-05-08T06:55:47;19.80;1.00
1429;DHT22;708;51.442;7.016;2023-05-08T06:58:14;19.90;1.00
1429;DHT22;708;51.442;7.016;2023-05-08T07:00:42;20.00;1.00
1429;DHT22;708;51.442;7.016;2023-05-08T07:03:10;20.10;1.00
1429;DHT22;708;51.442;7.016;2023-05-08T07:05:37;20.20;1.00
1429;DHT22;708;51.442;7.016;2023-05-08T07:08:04;20.30;1.00
1429;DHT22;708;51.442;7.016;2023-05-08T07:10:31;20.40;1.00
1429;DHT22;708;51.442;7.016;2023-05-08T07:12:57;20.50;1.00
1429;DHT22;708;51.442;7.016;2023-05-08T07:15:24;20.80;1.00
1429;DHT22;708;51.442;7.016;2023-05-08T07:17:51;21.10;1.00
1429;DHT22;708;51.442;7.016;2023-05-08T07:20:19;21.40;1.00
1429;DHT22;708;51.442;7.016;2023-05-08T07:22:47;21.70;99.90
1429;DHT22;708;51.442;7.016;2023-05-08T07:25:13;22.40;99.90
1429;DHT22;708;51.442;7.016;2023-05-08T07:27:40;23.20;99.90
1429;DHT22;708;51.442;7.016;2023-05-08T07:30:08;24.60;99.90
1429;DHT22;708;51.442;7.016;2023-05-08T07:32:35;26.00;99.90
1429;DHT22;708;51.442;7.016;2023-05-08T07:35:04;27.10;72.90
1429;DHT22;708;51.442;7.016;2023-05-08T07:37:34;28.00;99.90
1429;DHT22;708;51.442;7.016;2023-05-08T07:40:00;28.00;99.90
1429;DHT22;708;51.442;7.016;2023-05-08T07:42:28;28.20;99.90
1429;DHT22;708;51.442;7.016;2023-05-08T07:44:54;28.40;99.90
1429;DHT22;708;51.442;7.016;2023-05-08T07:47:21;28.30;99.90
1429;DHT22;708;51.442;7.016;2023-05-08T07:49:48;28.40;99.90
1429;DHT22;708;51.442;7.016;2023-05-08T07:52:15;28.40;99.90
1429;DHT22;708;51.442;7.016;2023-05-08T07:54:43;28.50;99.90
1429;DHT22;708;51.442;7.016;2023-05-08T07:57:10;28.20;99.90
1429;DHT22;708;51.442;7.016;2023-05-08T07:59:37;28.10;99.90
1429;DHT22;708;51.442;7.016;2023-05-08T08:02:04;27.80;99.90
1429;DHT22;708;51.442;7.016;2023-05-08T08:04:31;27.80;99.90
1429;DHT22;708;51.442;7.016;2023-05-08T08:06:58;28.00;99.90
1429;DHT22;708;51.442;7.016;2023-05-08T08:09:25;27.90;99.90
1429;DHT22;708;51.442;7.016;2023-05-08T08:11:53;28.00;99.90
1429;DHT22;708;51.442;7.016;2023-05-08T08:14:20;28.00;99.90
1429;DHT22;708;51.442;7.016;2023-05-08T08:16:46;28.00;99.90
1429;DHT22;708;51.442;7.016;2023-05-08T08:19:13;28.00;99.90
1429;DHT22;708;51.442;7.016;2023-05-08T08:21:43;28.00;99.90
1429;DHT22;708;51.442;7.016;2023-05-08T08:24:10;28.30;99.90
1429;DHT22;708;51.442;7.016;2023-05-08T08:26:37;28.50;99.90
1429;DHT22;708;51.442;7.016;2023-05-08T08:29:05;28.50;99.90
1429;DHT22;708;51.442;7.016;2023-05-08T08:31:32;28.60;99.90
1429;DHT22;708;51.442;7.016;2023-05-08T08:33:59;28.60;99.90
1429;DHT22;708;51.442;7.016;2023-05-08T08:36:26;28.70;99.90
1429;DHT22;708;51.442;7.016;2023-05-08T08:38:52;28.70;99.90
1429;DHT22;708;51.442;7.016;2023-05-08T08:41:19;28.80;99.90
1429;DHT22;708;51.442;7.016;2023-05-08T08:43:47;28.80;99.90
1429;DHT22;708;51.442;7.016;2023-05-08T08:46:19;29.00;99.90
1429;DHT22;708;51.442;7.016;2023-05-08T08:48:50;29.20;99.90
1429;DHT22;708;51.442;7.016;2023-05-08T08:51:24;29.50;99.90
1429;DHT22;708;51.442;7.016;2023-05-08T08:53:57;29.70;99.90
1429;DHT22;708;51.442;7.016;2023-05-08T08:56:28;29.80;99.90
1429;DHT22;708;51.442;7.016;2023-05-08T08:58:56;29.50;99.90
1429;DHT22;708;51.442;7.016;2023-05-08T09:01:26;29.50;99.90
1429;DHT22;708;51.442;7.016;2023-05-08T09:03:56;29.50;99.90
1429;DHT22;708;51.442;7.016;2023-05-08T09:06:23;29.00;99.90
1429;DHT22;708;51.442;7.016;2023-05-08T09:08:50;28.80;99.90
1429;DHT22;708;51.442;7.016;2023-05-08T09:11:20;28.60;99.90
1429;DHT22;708;51.442;7.016;2023-05-08T09:13:47;28.40;99.90
1429;DHT22;708;51.442;7.016;2023-05-08T09:16:13;28.00;99.90
1429;DHT22;708;51.442;7.016;2023-05-08T09:18:42;27.80;99.90
1429;DHT22;708;51.442;7.016;2023-05-08T09:21:08;27.80;99.90
1429;DHT22;708;51.442;7.016;2023-05-08T09:23:35;27.50;99.90
1429;DHT22;708;51.442;7.016;2023-05-08T09:26:03;27.20;99.90
1429;DHT22;708;51.442;7.016;2023-05-08T09:28:30;27.00;99.90
1429;DHT22;708;51.442;7.016;2023-05-08T09:30:58;26.90;99.90
1429;DHT22;708;51.442;7.016;2023-05-08T09:33:27;26.70;99.90
1429;DHT22;708;51.442;7.016;2023-05-08T09:35:55;26.50;1.00
1429;DHT22;708;51.442;7.016;2023-05-08T09:38:33;26.40;99.90
1429;DHT22;708;51.442;7.016;2023-05-08T09:41:07;26.30;1.00
1429;DHT22;708;51.442;7.016;2023-05-08T09:43:38;26.20;1.00
1429;DHT22;708;51.442;7.016;2023-05-08T09:46:22;26.10;1.00
1429;DHT22;708;51.442;7.016;2023-05-08T09:48:50;25.90;1.00
1429;DHT22;708;51.442;7.016;2023-05-08T09:51:19;25.70;1.00
1429;DHT22;708;51.442;7.016;2023-05-08T09:53:49;25.40;1.00
1429;DHT22;708;51.442;7.016;2023-05-08T09:56:28;25.10;63.80
1429;DHT22;708;51.442;7.016;2023-05-08T09:58:55;25.00;99.90
1429;DHT22;708;51.442;7.016;2023-05-08T10:01:29;24.90;99.90
1429;DHT22;708;51.442;7.016;2023-05-08T10:03:55;24.60;99.90
1429;DHT22;708;51.442;7.016;2023-05-08T10:06:24;24.50;1.00
1429;DHT22;708;51.442;7.016;2023-05-08T10:09:09;24.40;1.00
1429;DHT22;708;51.442;7.016;2023-05-08T10:11:36;24.30;1.00
1429;DHT22;708;51.442;7.016;2023-05-08T10:14:03;24.30;99.90
1429;DHT22;708;51.442;7.016;2023-05-08T10:16:30;24.30;1.00
1429;DHT22;708;51.442;7.016;2023-05-08T10:19:06;24.30;1.00
1429;DHT22;708;51.442;7.016;2023-05-08T10:21:37;24.40;1.00
1429;DHT22;708;51.442;7.016;2023-05-08T10:24:13;24.50;99.90
1429;DHT22;708;51.442;7.016;2023-05-08T10:26:42;24.50;99.90
1429;DHT22;708;51.442;7.016;2023-05-08T10:29:15;24.60;61.20
1429;DHT22;708;51.442;7.016;2023-05-08T10:31:43;24.60;1.00
1429;DHT22;708;51.442;7.016;2023-05-08T10:34:17;24.60;31.90
1429;DHT22;708;51.442;7.016;2023-05-08T10:36:46;24.60;19.30
1429;DHT22;708;51.442;7.016;2023-05-08T10:39:14;24.60;99.90
1429;DHT22;708;51.442;7.016;2023-05-08T10:41:41;24.40;99.90
1429;DHT22;708;51.442;7.016;2023-05-08T10:44:09;24.50;1.00
1429;DHT22;708;51.442;7.016;2023-05-08T10:46:39;24.60;1.00
1429;DHT22;708;51.442;7.016;2023-05-08T10:49:17;24.60;1.00
1429;DHT22;708;51.442;7.016;2023-05-08T10:51:55;24.50;99.90
1429;DHT22;708;51.442;7.016;2023-05-08T10:54:32;24.50;1.00
1429;DHT22;708;51.442;7.016;2023-05-08T10:57:08;24.60;99.90
1429;DHT22;708;51.442;7.016;2023-05-08T10:59:35;24.60;1.00
1429;DHT22;708;51.442;7.016;2023-05-08T11:02:05;24.80;1.00
1429;DHT22;708;51.442;7.016;2023-05-08T11:04:33;24.70;99.90
1429;DHT22;708;51.442;7.016;2023-05-08T11:07:01;24.60;1.00
1429;DHT22;708;51.442;7.016;2023-05-08T11:09:43;24.70;18.50
1429;DHT22;708;51.442;7.016;2023-05-08T11:12:19;24.50;99.90
1429;DHT22;708;51.442;7.016;2023-05-08T11:14:55;24.50;1.00
1429;DHT22;708;51.442;7.016;2023-05-08T11:17:23;24.60;99.90
1429;DHT22;708;51.442;7.016;2023-05-08T11:19:58;24.60;99.90
1429;DHT22;708;51.442;7.016;2023-05-08T11:22:28;24.90;1.00
1429;DHT22;708;51.442;7.016;2023-05-08T11:25:05;25.10;99.90
1429;DHT22;708;51.442;7.016;2023-05-08T11:27:38;25.10;99.90
1429;DHT22;708;51.442;7.016;2023-05-08T11:30:33;25.30;26.00
1429;DHT22;708;51.442;7.016;2023-05-08T11:33:13;25.40;1.00
1429;DHT22;708;51.442;7.016;2023-05-08T11:35:44;25.50;1.00
1429;DHT22;708;51.442;7.016;2023-05-08T11:38:17;25.70;99.90
1429;DHT22;708;51.442;7.016;2023-05-08T11:40:46;25.90;99.90
1429;DHT22;708;51.442;7.016;2023-05-08T11:46:40;26.30;1.00
1429;DHT22;708;51.442;7.016;2023-05-08T11:49:12;26.30;1.00
1429;DHT22;708;51.442;7.016;2023-05-08T11:51:40;26.40;1.00
1429;DHT22;708;51.442;7.016;2023-05-08T11:54:14;26.60;1.00
1429;DHT22;708;51.442;7.016;2023-05-08T11:56:42;26.50;1.00
1429;DHT22;708;51.442;7.016;2023-05-08T11:59:08;26.70;1.00
1429;DHT22;708;51.442;7.016;2023-05-08T12:01:36;27.00;99.90
1429;DHT22;708;51.442;7.016;2023-05-08T12:04:04;27.30;99.90
1429;DHT22;708;51.442;7.016;2023-05-08T12:06:32;27.70;99.90
1429;DHT22;708;51.442;7.016;2023-05-08T12:09:00;27.90;99.90
1429;DHT22;708;51.442;7.016;2023-05-08T12:11:30;27.90;99.90
1429;DHT22;708;51.442;7.016;2023-05-08T12:13:57;28.00;99.90
1429;DHT22;708;51.442;7.016;2023-05-08T12:16:24;28.10;99.90
1429;DHT22;708;51.442;7.016;2023-05-08T12:18:52;28.00;99.90
1429;DHT22;708;51.442;7.016;2023-05-08T12:21:20;28.20;99.90
1429;DHT22;708;51.442;7.016;2023-05-08T12:23:47;28.20;99.90
1429;DHT22;708;51.442;7.016;2023-05-08T12:26:14;28.40;99.90
1429;DHT22;708;51.442;7.016;2023-05-08T12:28:44;28.50;99.90
1429;DHT22;708;51.442;7.016;2023-05-08T12:31:12;28.60;99.90
1429;DHT22;708;51.442;7.016;2023-05-08T12:33:40;28.60;99.90
1429;DHT22;708;51.442;7.016;2023-05-08T12:36:08;28.30;99.90
1429;DHT22;708;51.442;7.016;2023-05-08T12:38:34;28.00;99.90
1429;DHT22;708;51.442;7.016;2023-05-08T12:41:02;27.90;99.90
1429;DHT22;708;51.442;7.016;2023-05-08T12:43:32;27.90;99.90
1429;DHT22;708;51.442;7.016;2023-05-08T12:46:01;27.80;99.90
1429;DHT22;708;51.442;7.016;2023-05-08T12:48:29;27.70;99.90
1429;DHT22;708;51.442;7.016;2023-05-08T12:51:01;27.60;99.90
1429;DHT22;708;51.442;7.016;2023-05-08T12:53:30;27.70;99.90
1429;DHT22;708;51.442;7.016;2023-05-08T12:55:59;27.70;99.90
1429;DHT22;708;51.442;7.016;2023-05-08T12:58:28;27.80;99.90
1429;DHT22;708;51.442;7.016;2023-05-08T13:01:05;27.70;99.90
1429;DHT22;708;51.442;7.016;2023-05-08T13:03:34;27.70;99.90
1429;DHT22;708;51.442;7.016;2023-05-08T13:06:01;27.70;99.90
1429;DHT22;708;51.442;7.016;2023-05-08T13:08:31;27.60;99.90
1429;DHT22;708;51.442;7.016;2023-05-08T13:11:02;27.60;99.90
1429;DHT22;708;51.442;7.016;2023-05-08T13:13:32;27.50;99.90
1429;DHT22;708;51.442;7.016;2023-05-08T13:16:03;27.30;99.90
1429;DHT22;708;51.442;7.016;2023-05-08T13:18:31;27.40;99.90
1429;DHT22;708;51.442;7.016;2023-05-08T13:20:58;27.60;99.90
1429;DHT22;708;51.442;7.016;2023-05-08T13:23:26;27.50;99.90
1429;DHT22;708;51.442;7.016;2023-05-08T13:25:53;27.60;99.90
1429;DHT22;708;51.442;7.016;2023-05-08T13:28:20;27.50;99.90
1429;DHT22;708;51.442;7.016;2023-05-08T13:30:47;27.60;99.90
1429;DHT22;708;51.442;7.016;2023-05-08T13:33:15;27.40;99.90
1429;DHT22;708;51.442;7.016;2023-05-08T13:35:42;27.20;99.90
1429;DHT22;708;51.442;7.016;2023-05-08T13:38:09;27.20;99.90
1429;DHT22;708;51.442;7.016;2023-05-08T13:40:35;27.40;99.90
1429;DHT22;708;51.442;7.016;2023-05-08T13:43:02;27.50;99.90
1429;DHT22;708;51.442;7.016;2023-05-08T13:45:29;27.50;99.90
1429;DHT22;708;51.442;7.016;2023-05-08T13:47:57;27.50;99.90
1429;DHT22;708;51.442;7.016;2023-05-08T13:50:25;27.50;99.90
1429;DHT22;708;51.442;7.016;2023-05-08T13:52:52;27.30;99.90
1429;DHT22;708;51.442;7.016;2023-05-08T13:55:19;27.30;99.90
1429;DHT22;708;51.442;7.016;2023-05-08T13:57:47;27.00;99.90
1429;DHT22;708;51.442;7.016;2023-05-08T14:00:14;26.80;99.90
1429;DHT22;708;51.442;7.016;2023-05-08T14:02:42;26.70;99.90
1429;DHT22;708;51.442;7.016;2023-05-08T14:05:09;26.80;99.90
1429;DHT22;708;51.442;7.016;2023-05-08T14:07:39;26.60;99.90
1429;DHT22;708;51.442;7.016;2023-05-08T14:10:07;26.50;99.90
1429;DHT22;708;51.442;7.016;2023-05-08T14:12:34;26.40;99.90
1429;DHT22;708;51.442;7.016;2023-05-08T14:15:02;26.30;99.90
1429;DHT22;708;51.442;7.016;2023-05-08T14:19:56;26.00;99.90
1429;DHT22;708;51.442;7.016;2023-05-08T14:22:23;25.80;99.90
1429;DHT22;708;51.442;7.016;2023-05-08T14:24:52;25.60;99.90
1429;DHT22;708;51.442;7.016;2023-05-08T14:27:19;25.50;1.00
1429;DHT22;708;51.442;7.016;2023-05-08T14:29:45;25.50;1.00
1429;DHT22;708;51.442;7.016;2023-05-08T14:32:12;25.40;1.00
1429;DHT22;708;51.442;7.016;2023-05-08T14:34:39;25.50;1.00
1429;DHT22;708;51.442;7.016;2023-05-08T14:37:06;25.60;1.00
1429;DHT22;708;51.442;7.016;2023-05-08T14:39:33;25.70;1.00
1429;DHT22;708;51.442;7.016;2023-05-08T14:42:01;25.60;1.00
1429;DHT22;708;51.442;7.016;2023-05-08T14:44:28;25.60;1.00
1429;DHT22;708;51.442;7.016;2023-05-08T14:46:55;25.50;1.00
1429;DHT22;708;51.442;7.016;2023-05-08T14:49:22;25.30;18.70
1429;DHT22;708;51.442;7.016;2023-05-08T14:51:49;25.20;99.90
1429;DHT22;708;51.442;7.016;2023-05-08T14:54:15;25.20;99.90
1429;DHT22;708;51.442;7.016;2023-05-08T14:56:42;25.20;1.00
1429;DHT22;708;51.442;7.016;2023-05-08T14:59:10;25.20;1.00
1429;DHT22;708;51.442;7.016;2023-05-08T15:01:37;25.20;1.00
1429;DHT22;708;51.442;7.016;2023-05-08T15:04:08;25.00;99.90
1429;DHT22;708;51.442;7.016;2023-05-08T15:06:34;25.00;99.90
1429;DHT22;708;51.442;7.016;2023-05-08T15:09:02;24.90;99.90
1429;DHT22;708;51.442;7.016;2023-05-08T15:11:28;24.90;5.90
1429;DHT22;708;51.442;7.016;2023-05-08T15:13:55;24.80;1.00
1429;DHT22;708;51.442;7.016;2023-05-08T15:16:24;24.90;4.80
1429;DHT22;708;51.442;7.016;2023-05-08T15:18:51;24.90;1.00
1429;DHT22;708;51.442;7.016;2023-05-08T15:21:18;24.70;99.90
1429;DHT22;708;51.442;7.016;2023-05-08T15:23:49;24.50;1.00
1429;DHT22;708;51.442;7.016;2023-05-08T15:26:16;24.40;1.00
1429;DHT22;708;51.442;7.016;2023-05-08T15:28:43;24.30;99.90
1429;DHT22;708;51.442;7.016;2023-05-08T15:31:10;24.30;99.90
1429;DHT22;708;51.442;7.016;2023-05-08T15:33:38;24.20;1.00
1429;DHT22;708;51.442;7.016;2023-05-08T15:36:09;24.10;43.90
1429;DHT22;708;51.442;7.016;2023-05-08T15:38:36;24.00;1.00
1429;DHT22;708;51.442;7.016;2023-05-08T15:41:03;24.00;95.00
1429;DHT22;708;51.442;7.016;2023-05-08T15:43:30;24.00;99.10
1429;DHT22;708;51.442;7.016;2023-05-08T15:45:57;24.00;99.90
1429;DHT22;708;51.442;7.016;2023-05-08T15:48:24;24.10;99.90
1429;DHT22;708;51.442;7.016;2023-05-08T15:50:52;24.20;99.90
1429;DHT22;708;51.442;7.016;2023-05-08T15:53:19;24.10;99.90
1429;DHT22;708;51.442;7.016;2023-05-08T15:55:46;24.10;99.90
1429;DHT22;708;51.442;7.016;2023-05-08T15:58:12;23.90;99.90
1429;DHT22;708;51.442;7.016;2023-05-08T16:00:39;23.90;1.00
1429;DHT22;708;51.442;7.016;2023-05-08T16:03:06;23.70;99.90
1429;DHT22;708;51.442;7.016;2023-05-08T16:05:33;23.60;1.00
1429;DHT22;708;51.442;7.016;2023-05-08T16:08:01;23.40;99.90
1429;DHT22;708;51.442;7.016;2023-05-08T16:10:29;23.30;1.00
1429;DHT22;708;51.442;7.016;2023-05-08T16:12:56;23.10;1.00
1429;DHT22;708;51.442;7.016;2023-05-08T16:15:23;23.00;1.00
1429;DHT22;708;51.442;7.016;2023-05-08T16:17:50;22.90;1.00
1429;DHT22;708;51.442;7.016;2023-05-08T16:20:17;22.90;99.90
1429;DHT22;708;51.442;7.016;2023-05-08T16:22:43;22.70;17.60
1429;DHT22;708;51.442;7.016;2023-05-08T16:25:11;22.50;1.00
1429;DHT22;708;51.442;7.016;2023-05-08T16:27:38;22.40;99.90
1429;DHT22;708;51.442;7.016;2023-05-08T16:30:06;22.30;99.90
1429;DHT22;708;51.442;7.016;2023-05-08T16:32:33;22.30;99.90
1429;DHT22;708;51.442;7.016;2023-05-08T16:35:00;22.10;99.90
1429;DHT22;708;51.442;7.016;2023-05-08T16:37:26;22.10;99.90
1429;DHT22;708;51.442;7.016;2023-05-08T16:39:54;22.10;1.00
1429;DHT22;708;51.442;7.016;2023-05-08T16:42:22;22.00;1.00